EDT,Max TemperatureF,Mean TemperatureF,Min TemperatureF,Max Dew PointF,MeanDew PointF,Min DewpointF,Max Humidity, Mean Humidity, Min Humidity, Max Sea Level PressureIn, Mean Sea Level PressureIn, Min Sea Level PressureIn, Max VisibilityMiles, Mean VisibilityMiles, Min VisibilityMiles, Max Wind SpeedMPH, Mean Wind SpeedMPH, Max Gust SpeedMPH,PrecipitationIn, CloudCover, Events, WindDirDegrees
2012-5-1,84,79,74,70,68,67,82,70,58,30.13,30.09,30.06,10,10,10,23,14,29,0.00,1,,107
2012-5-2,83,78,73,68,68,66,84,71,58,30.14,30.10,30.05,10,10,10,22,13,28,0.00,0,,109
2012-5-3,84,79,73,68,67,66,84,73,62,30.14,30.10,30.07,10,10,10,18,12,23,0.00,2,,111
2012-5-4,84,76,67,67,66,64,87,71,55,30.13,30.08,30.03,10,10,10,14,8,17,0.00,1,,118
2012-5-5,86,76,65,69,67,63,93,72,51,30.05,30.00,29.96,10,10,10,15,7,18,0.00,0,,149
2012-5-6,92,81,69,70,67,57,90,62,34,30.00,29.95,29.88,10,10,10,16,8,20,0.00,1,,209
2012-5-7,90,79,68,70,66,63,87,65,43,29.93,29.90,29.88,10,9,1,33,6,53,0.94,3,Rain-Thunderstorm,289
2012-5-8,88,78,67,72,67,64,93,70,46,29.94,29.90,29.86,10,10,8,24,6,30,0.01,2,Rain-Thunderstorm,193
2012-5-9,91,80,69,72,68,64,93,69,44,29.91,29.87,29.79,10,10,10,20,6,24,0.01,4,Rain,215
2012-5-10,83,77,70,70,68,66,93,78,63,29.93,29.85,29.79,10,10,6,15,8,21,0.00,3,,6
2012-5-11,84,77,69,68,64,59,90,71,51,30.13,30.02,29.92,10,10,10,20,11,24,0.00,3,,56
2012-5-12,83,78,73,66,63,60,74,63,51,30.22,30.16,30.10,10,10,10,20,11,26,0.00,3,,90
2012-5-13,83,78,73,68,65,62,74,66,58,30.16,30.12,30.05,10,10,10,18,11,25,0.00,3,,102
2012-5-14,85,79,72,72,70,68,90,76,61,30.07,30.02,29.97,10,10,10,15,6,20,T,1,,131
2012-5-15,87,79,71,71,69,67,93,77,61,30.05,30.01,29.95,10,10,7,17,5,22,0.10,3,Rain-Thunderstorm,133
2012-5-16,82,75,67,72,69,66,97,80,62,30.03,29.99,29.95,10,9,2,10,3,13,0.68,4,Rain-Thunderstorm,52
2012-5-17,85,77,69,70,69,64,93,76,58,30.00,29.93,29.88,10,9,2,22,5,28,0.49,6,Rain-Thunderstorm,173
2012-5-18,83,76,68,70,68,66,97,78,58,29.96,29.92,29.89,10,10,8,13,6,17,0.03,2,,358
2012-5-19,84,76,67,70,68,64,93,78,62,30.01,29.95,29.91,10,10,10,15,5,26,T,2,,39
2012-5-20,84,75,66,70,67,62,93,78,62,30.00,29.97,29.94,10,10,10,15,6,20,0.00,2,,24
2012-5-21,87,75,63,65,61,51,87,58,29,30.01,29.98,29.94,10,10,10,14,5,17,0.00,0,,27
2012-5-22,87,77,66,72,67,63,87,73,59,29.98,29.95,29.90,10,10,10,23,8,28,0.07,2,Rain-Thunderstorm,154
2012-5-23,88,79,70,72,70,66,97,76,55,29.94,29.91,29.88,10,10,10,17,9,23,0.00,2,,155
2012-5-24,85,77,68,74,71,66,97,83,69,29.93,29.90,29.87,10,10,9,16,6,20,T,4,Rain,100
2012-5-25,86,78,70,74,71,69,100,81,61,30.05,30.00,29.91,10,10,10,14,5,20,0.00,2,,13
2012-5-26,88,79,70,73,70,66,100,76,51,30.06,30.02,29.98,10,8,1,14,6,18,0.00,2,,336
2012-5-27,92,80,68,70,67,63,93,67,41,29.96,29.90,29.83,10,8,1,28,11,36,1.61,4,Rain-Thunderstorm,233
2012-5-28,90,82,74,74,71,68,93,73,52,29.98,29.93,29.87,10,10,3,23,11,28,0.23,4,Rain-Thunderstorm,172
2012-5-29,92,82,71,74,70,67,90,69,47,29.98,29.94,29.89,10,10,10,20,8,26,0.01,3,Rain,181
2012-5-30,94,83,72,73,70,64,90,69,47,29.93,29.88,29.80,10,8,1,21,9,26,1.58,5,Rain-Thunderstorm,222
2012-5-31,89,80,70,74,71,64,93,74,55,29.96,29.91,29.87,10,9,4,15,6,18,T,2,Rain,208